Villa Rica, GA

11:29 PM EDT on Setembre 16, 2014 (GMT -0400)
Villa Rica, GA | Change Station
CLOSE
Current Station
Personal Weather Stations
Location: Villa Rica, GA
Elevation: 1145 ft
Nearby Weather Stations

Elev 1145 ft 33.73 °N, 84.92 °W | Updated 4 seconds ago

Clar
Clar
70.2 °F
Feels Like 70.2 °F
N
0.0
vent Variadís vent from OSO
Gusts 0.0 mph

Auèi
High -- | Low -- °F
--% Chance of Precip.
Yesterday
High -- | Low -- °F
Precip. -- Dins
7:23 AM 7:44 PM
Last Quarter, 40% visible
Pression 30.03 Dins
Visibilitat 10.0 miles
Nivols Clar
Punt de ròs 66 °F
Imor 88%
Rainfall 0.00 Dins
Snow Depth Not available.
UV 0 out of 12
Pollen 8.50 out of 12
Ozone Good
PM2.5 Moderate
Flu Activity Not available.
METAR KCTJ 170315Z AUTO 00000KT 10SM CLR 21/20 A3003 RMK AO2

More Conditions Fewer Conditions

Pression 30.03 Dins
Visibilitat 10.0 miles
Nivols Clar
Punt de ròs 66 °F
Imor 88%
Rainfall 0.00 Dins
Snow Depth Not available.
UV 0 out of 12
Pollen 8.50 out of 12
Ozone Good
PM2.5 Moderate
Flu Activity Not available.
METAR KCTJ 170315Z AUTO 00000KT 10SM CLR 21/20 A3003 RMK AO2

More Conditions Fewer Conditions

10-Day Weather Forecast

Almanac

Astronomy

Sep. 16, 2014 Rise Set
Actual Time 7:23 AM EDT 7:44 PM EDT
Civil Twilight 6:58 AM EDT 8:09 PM EDT
Nautical Twilight 6:29 AM EDT 8:38 PM EDT
Astronomical Twilight 5:59 AM EDT 9:08 PM EDT
Luna 12:45 AM EDT (9/16) 2:55 PM EDT (9/16)
Length Of Visible Light 13h 10m
Length of Day
12h 21m
Tomorrow will be 2m 5s shorter.
Last Quarter, 40% of the Moon is Illuminated
Auèi
Last Quarter
Sep 24
New
Oct 1
First Quarter
Oct 8
Full
Oct 15
Last Quarter

Today's Extremes

State Highs State Lows

Community

WunderPhotos

Upload Photos

1,753,953 photos uploaded!

Nearby

Air Quality

  Air Quality AQ Index Pollutant
Yesterday Good
PM10
Yesterday Good
OZONE
Current Moderate
PM2.5
Current Good
OZONE
Dimècres Good
OZONE
Dimècres Moderate
PM2.5

Snow Depth

Station Depth Elevation
No new snow has been reported.

Earthquake Activity

Vila Distance Mag. Time & Date
No recent earthquake activity has been reported nearby.
Minimum magnitude displayed is 2.5.

Coastal Water Temperatures

Luòc Temperatura
No Stations Reporting

Nearby Weather Stations